createdAt,value
2017-03-06T00:00:10.903Z,7.5
2017-03-06T00:01:10.921Z,7.49
2017-03-06T00:02:10.936Z,7.5
2017-03-06T00:03:10.981Z,7.46
2017-03-06T00:04:10.609Z,7.48
2017-03-06T00:05:11.000Z,7.49
2017-03-06T00:06:25.541Z,7.49
2017-03-06T00:09:11.084Z,7.39
2017-03-06T00:10:11.129Z,7.39
2017-03-06T00:11:11.125Z,7.32
2017-03-06T00:12:11.149Z,7.32
2017-03-06T00:13:11.150Z,7.39
2017-03-06T00:14:25.699Z,7.27
2017-03-06T00:15:11.219Z,7.27
2017-03-06T00:16:11.208Z,7.28
2017-03-06T00:17:11.241Z,7.25
2017-03-06T00:18:11.249Z,7.24
2017-03-06T00:19:25.796Z,7.17
2017-03-06T00:20:25.830Z,7.15
2017-03-06T00:22:11.325Z,7.06
2017-03-06T00:23:11.346Z,6.95
2017-03-06T00:25:11.396Z,7.02
2017-03-06T00:26:11.425Z,6.97
2017-03-06T00:27:25.957Z,6.98
2017-03-06T00:28:11.445Z,6.91
2017-03-06T00:29:25.992Z,6.99
2017-03-06T00:30:11.094Z,6.95
2017-03-06T00:31:11.497Z,6.92
2017-03-06T00:32:11.534Z,6.95
2017-03-06T00:33:11.543Z,6.94
2017-03-06T00:34:11.588Z,6.99
2017-03-06T00:35:11.585Z,6.94
2017-03-06T00:36:26.137Z,6.92
2017-03-06T00:38:26.158Z,6.85
2017-03-06T00:39:11.665Z,6.92
2017-03-06T00:40:11.668Z,6.77
2017-03-06T00:41:11.690Z,6.79
2017-03-06T00:42:11.710Z,6.85
2017-03-06T00:43:11.726Z,6.79
2017-03-06T00:44:11.768Z,6.71
2017-03-06T00:45:11.766Z,6.77
2017-03-06T00:46:11.783Z,6.84
2017-03-06T00:48:11.437Z,6.8
2017-03-06T00:49:11.855Z,6.81
2017-03-06T00:50:11.885Z,6.77
2017-03-06T00:51:11.913Z,6.77
2017-03-06T00:52:11.910Z,6.73
2017-03-06T00:53:11.918Z,6.66
2017-03-06T00:54:11.935Z,6.59
2017-03-06T00:55:11.952Z,6.56
2017-03-06T00:56:11.975Z,6.48
2017-03-06T00:57:26.532Z,6.46
2017-03-06T00:58:12.014Z,6.52
2017-03-06T00:59:12.061Z,6.54
2017-03-06T01:00:12.072Z,6.52
2017-03-06T01:01:26.599Z,6.43
2017-03-06T01:02:12.098Z,6.31
2017-03-06T01:03:12.108Z,6.19
2017-03-06T01:04:12.128Z,6.21
2017-03-06T01:05:12.160Z,6.12
2017-03-06T01:06:26.693Z,6.09
2017-03-06T01:07:12.180Z,6.15
2017-03-06T01:08:12.201Z,6.09
2017-03-06T01:09:12.218Z,6.06
2017-03-06T01:10:12.246Z,6.12
2017-03-06T01:11:12.259Z,6.08
2017-03-06T01:12:12.276Z,6.03
2017-03-06T01:13:12.300Z,6.09
2017-03-06T01:14:11.942Z,5.99
2017-03-06T01:15:12.344Z,6.11
2017-03-06T01:16:12.350Z,6.11
2017-03-06T01:17:26.897Z,6.06
2017-03-06T01:18:12.390Z,6.01
2017-03-06T01:19:12.405Z,6.09
2017-03-06T01:20:26.957Z,6.06
2017-03-06T01:21:12.896Z,6.09
2017-03-06T01:22:12.465Z,6.09
2017-03-06T01:23:12.507Z,6
2017-03-06T01:24:12.517Z,6
2017-03-06T01:25:12.522Z,5.97
2017-03-06T01:26:12.536Z,5.91
2017-03-06T01:27:12.561Z,5.85
2017-03-06T01:29:12.612Z,5.71
2017-03-06T01:30:12.608Z,5.78
2017-03-06T01:31:27.166Z,5.63
2017-03-06T01:33:27.196Z,5.64
2017-03-06T01:34:12.691Z,5.61
2017-03-06T01:35:27.237Z,5.49
2017-03-06T01:36:12.733Z,5.51
2017-03-06T01:37:12.740Z,5.43
2017-03-06T01:38:12.772Z,5.48
2017-03-06T01:39:27.308Z,5.4
2017-03-06T01:40:12.801Z,5.39
2017-03-06T01:41:12.830Z,5.39
2017-03-06T01:42:12.842Z,5.46
2017-03-06T01:43:12.854Z,5.45
2017-03-06T01:45:12.887Z,5.43
2017-03-06T01:46:12.918Z,5.42
2017-03-06T01:47:12.933Z,5.39
2017-03-06T01:48:12.984Z,5.45
2017-03-06T01:49:27.492Z,5.43
2017-03-06T01:50:27.516Z,5.48
2017-03-06T01:51:13.012Z,5.4
2017-03-06T01:52:13.033Z,5.48
2017-03-06T01:53:13.052Z,5.42
2017-03-06T01:54:13.057Z,5.49
2017-03-06T01:55:13.082Z,5.48
2017-03-06T01:56:13.090Z,5.46
2017-03-06T01:57:12.742Z,5.46
2017-03-06T01:58:13.127Z,5.56
2017-03-06T01:59:13.145Z,5.63
2017-03-06T02:00:13.167Z,5.64
2017-03-06T02:01:13.183Z,5.65
2017-03-06T02:02:13.203Z,5.68
2017-03-06T02:03:13.228Z,5.75
2017-03-06T02:04:27.769Z,5.82
2017-03-06T02:05:13.266Z,5.83
2017-03-06T02:06:13.280Z,5.85
2017-03-06T02:07:13.296Z,5.83
2017-03-06T02:08:13.318Z,5.83
2017-03-06T02:09:27.860Z,5.78
2017-03-06T02:10:13.349Z,5.81
2017-03-06T02:11:13.368Z,5.81
2017-03-06T02:12:13.385Z,5.81
2017-03-06T02:13:13.411Z,5.83
2017-03-06T02:14:13.428Z,5.79
2017-03-06T02:15:13.453Z,5.9
2017-03-06T02:16:13.461Z,5.96
2017-03-06T02:17:13.481Z,5.96
2017-03-06T02:18:13.494Z,5.94
2017-03-06T02:19:13.532Z,6
2017-03-06T02:20:13.532Z,6.04
2017-03-06T02:21:13.565Z,5.96
2017-03-06T02:22:13.586Z,5.94
2017-03-06T02:23:13.588Z,5.89
2017-03-06T02:24:28.135Z,5.93
2017-03-06T02:25:28.152Z,5.9
2017-03-06T02:27:13.684Z,5.96
2017-03-06T02:28:13.679Z,5.99
2017-03-06T02:29:13.696Z,6.03
2017-03-06T02:30:13.722Z,5.89
2017-03-06T02:31:13.736Z,5.94
2017-03-06T02:32:13.768Z,5.85
2017-03-06T02:33:13.771Z,5.81
2017-03-06T02:34:13.791Z,5.82
2017-03-06T02:35:13.840Z,5.85
2017-03-06T02:36:28.354Z,5.79
2017-03-06T02:37:13.842Z,5.81
2017-03-06T02:38:13.864Z,5.79
2017-03-06T02:39:13.880Z,5.74
2017-03-06T02:40:28.428Z,5.65
2017-03-06T02:41:28.446Z,5.54
2017-03-06T02:42:28.462Z,5.51
2017-03-06T02:43:13.978Z,5.51
2017-03-06T02:44:13.968Z,5.58
2017-03-06T02:45:13.990Z,5.38
2017-03-06T02:46:14.006Z,5.36
2017-03-06T02:47:14.033Z,5.28
2017-03-06T02:48:14.054Z,5.27
2017-03-06T02:49:14.063Z,5.27
2017-03-06T02:50:14.081Z,5.17
2017-03-06T02:51:14.097Z,5.18
2017-03-06T02:52:28.643Z,5.12
2017-03-06T02:53:14.139Z,5.07
2017-03-06T02:54:14.166Z,5.04
2017-03-06T02:55:14.180Z,4.94
2017-03-06T02:56:14.190Z,5.06
2017-03-06T02:57:14.204Z,5.12
2017-03-06T02:58:14.244Z,5.12
2017-03-06T02:59:14.241Z,5.1
2017-03-06T03:00:14.261Z,5.17
2017-03-06T03:01:14.292Z,5.24
2017-03-06T03:03:14.318Z,5.33
2017-03-06T03:05:14.350Z,5.33
2017-03-06T03:07:14.387Z,5.21
2017-03-06T03:08:28.945Z,5.07
2017-03-06T03:09:14.042Z,5.07
2017-03-06T03:10:14.061Z,5.06
2017-03-06T03:11:14.476Z,5.03
2017-03-06T03:12:14.479Z,4.92
2017-03-06T03:13:14.499Z,4.91
2017-03-06T03:14:14.525Z,4.99
2017-03-06T03:15:14.531Z,5.02
2017-03-06T03:16:14.573Z,5.03
2017-03-06T03:17:14.579Z,5.12
2017-03-06T03:18:14.605Z,5.06
2017-03-06T03:19:14.625Z,5.06
2017-03-06T03:20:14.649Z,4.92
2017-03-06T03:21:14.654Z,5.07
2017-03-06T03:22:14.657Z,5.02
2017-03-06T03:23:14.676Z,4.97
2017-03-06T03:24:29.232Z,4.86
2017-03-06T03:25:14.717Z,4.91
2017-03-06T03:26:14.729Z,4.86
2017-03-06T03:27:14.764Z,4.85
2017-03-06T03:28:14.774Z,4.96
2017-03-06T03:30:29.328Z,4.78
2017-03-06T03:31:14.816Z,4.86
2017-03-06T03:32:14.834Z,4.77
2017-03-06T03:33:14.864Z,4.69
2017-03-06T03:34:14.867Z,4.67
2017-03-06T03:35:14.888Z,4.69
2017-03-06T03:36:14.918Z,4.65
2017-03-06T03:37:14.925Z,4.73
2017-03-06T03:38:14.944Z,4.65
2017-03-06T03:39:29.490Z,4.66
2017-03-06T03:40:14.982Z,4.66
2017-03-06T03:42:15.016Z,4.75
2017-03-06T03:43:14.651Z,4.82
2017-03-06T03:44:15.048Z,4.84
2017-03-06T03:45:15.267Z,4.86
2017-03-06T03:46:29.612Z,4.94
2017-03-06T03:48:15.121Z,4.89
2017-03-06T03:49:15.138Z,4.91
2017-03-06T03:50:15.155Z,4.92
2017-03-06T03:51:15.198Z,4.85
2017-03-06T03:52:15.192Z,4.92
2017-03-06T03:53:15.212Z,5
2017-03-06T03:54:15.281Z,5.06
2017-03-06T03:55:15.246Z,5.06
2017-03-06T03:56:15.264Z,5.12
2017-03-06T03:57:15.281Z,5.09
2017-03-06T03:58:15.318Z,5.04
2017-03-06T03:59:15.316Z,5.02
2017-03-06T04:00:15.343Z,4.89
2017-03-06T04:01:15.368Z,4.84
2017-03-06T04:02:15.370Z,4.92
2017-03-06T04:03:15.414Z,4.94
2017-03-06T04:04:15.405Z,4.96
2017-03-06T04:05:15.431Z,4.96
2017-03-06T04:06:15.453Z,4.88
2017-03-06T04:07:15.477Z,5.09
2017-03-06T04:08:15.512Z,5.07
2017-03-06T04:09:15.493Z,5.07
2017-03-06T04:10:15.512Z,5.06
2017-03-06T04:11:30.058Z,5.07
2017-03-06T04:12:15.554Z,4.92
2017-03-06T04:13:15.584Z,4.96
2017-03-06T04:14:15.195Z,4.96
2017-03-06T04:15:15.598Z,5.04
2017-03-06T04:16:15.624Z,4.89
2017-03-06T04:17:30.165Z,4.7
2017-03-06T04:18:15.655Z,4.66
2017-03-06T04:19:30.215Z,4.67
2017-03-06T04:20:15.689Z,4.67
2017-03-06T04:21:15.723Z,4.63
2017-03-06T04:22:15.744Z,4.72
2017-03-06T04:23:15.747Z,4.66
2017-03-06T04:24:15.761Z,4.58
2017-03-06T04:25:15.779Z,4.63
2017-03-06T04:26:15.805Z,4.51
2017-03-06T04:27:30.343Z,4.67
2017-03-06T04:28:15.832Z,4.67
2017-03-06T04:29:15.863Z,4.65
2017-03-06T04:30:15.865Z,4.59
2017-03-06T04:31:15.889Z,4.41
2017-03-06T04:33:15.935Z,4.42
2017-03-06T04:34:30.464Z,4.44
2017-03-06T04:35:15.954Z,4.42
2017-03-06T04:36:15.972Z,4.41
2017-03-06T04:37:15.992Z,4.32
2017-03-06T04:38:16.005Z,4.4
2017-03-06T04:39:16.035Z,4.4
2017-03-06T04:40:16.049Z,4.4
2017-03-06T04:41:16.060Z,4.34
2017-03-06T04:42:16.080Z,4.34
2017-03-06T04:43:30.624Z,4.22
2017-03-06T04:44:16.117Z,4.16
2017-03-06T04:45:16.152Z,4.14
2017-03-06T04:46:16.151Z,4
2017-03-06T04:47:16.173Z,4
2017-03-06T04:48:16.193Z,4.06
2017-03-06T04:49:30.728Z,3.86
2017-03-06T04:50:16.217Z,3.9
2017-03-06T04:51:16.502Z,3.84
2017-03-06T04:52:16.274Z,3.72
2017-03-06T04:53:16.314Z,3.79
2017-03-06T04:54:16.284Z,3.93
2017-03-06T04:55:16.324Z,3.88
2017-03-06T04:56:16.341Z,3.88
2017-03-06T04:58:16.355Z,3.88
2017-03-06T04:59:30.904Z,4.04
2017-03-06T05:00:16.401Z,4.06
2017-03-06T05:01:16.420Z,4.02
2017-03-06T05:02:16.040Z,4.04
2017-03-06T05:03:16.452Z,3.91
2017-03-06T05:04:16.473Z,3.88
2017-03-06T05:05:16.481Z,4
2017-03-06T05:06:16.507Z,3.9
2017-03-06T05:07:16.522Z,3.96
2017-03-06T05:08:16.529Z,3.86
2017-03-06T05:09:16.564Z,3.94
2017-03-06T05:10:16.564Z,4.06
2017-03-06T05:11:16.605Z,3.87
2017-03-06T05:12:16.598Z,3.9
2017-03-06T05:13:16.615Z,3.79
2017-03-06T05:15:16.649Z,3.69
2017-03-06T05:16:16.671Z,3.65
2017-03-06T05:17:17.041Z,3.62
2017-03-06T05:18:16.714Z,3.61
2017-03-06T05:19:16.733Z,3.6
2017-03-06T05:20:16.737Z,3.57
2017-03-06T05:21:16.753Z,3.48
2017-03-06T05:22:16.767Z,3.6
2017-03-06T05:23:16.785Z,3.76
2017-03-06T05:24:16.876Z,3.86
2017-03-06T05:25:16.821Z,3.69
2017-03-06T05:26:16.849Z,3.84
2017-03-06T05:27:16.867Z,3.83
2017-03-06T05:28:16.898Z,3.79
2017-03-06T05:29:16.989Z,3.84
2017-03-06T05:30:16.913Z,3.73
2017-03-06T05:31:16.938Z,3.72
2017-03-06T05:32:16.942Z,3.58
2017-03-06T05:33:16.958Z,3.68
2017-03-06T05:34:16.982Z,3.6
2017-03-06T05:35:16.996Z,3.6
2017-03-06T05:36:16.624Z,3.54
2017-03-06T05:37:16.661Z,3.52
2017-03-06T05:38:16.668Z,3.62
2017-03-06T05:39:17.077Z,3.66
2017-03-06T05:41:17.096Z,3.8
2017-03-06T05:42:17.123Z,3.87
2017-03-06T05:43:17.131Z,3.87
2017-03-06T05:44:17.155Z,3.87
2017-03-06T05:45:17.167Z,3.87
2017-03-06T05:46:31.717Z,3.91
2017-03-06T05:47:17.197Z,3.88
2017-03-06T05:50:17.262Z,3.87
2017-03-06T05:51:31.797Z,3.91
2017-03-06T05:52:31.814Z,4.02
2017-03-06T05:53:17.303Z,4.04
2017-03-06T05:54:17.317Z,4.02
2017-03-06T05:55:17.348Z,4.02
2017-03-06T05:56:17.354Z,4.09
2017-03-06T05:57:17.372Z,4.09
2017-03-06T05:58:17.402Z,4.09
2017-03-06T05:59:17.408Z,4.04
2017-03-06T06:00:17.422Z,4.18
2017-03-06T06:01:17.070Z,4.16
2017-03-06T06:02:31.999Z,4.22
2017-03-06T06:03:17.491Z,4.27
2017-03-06T06:04:17.497Z,4.27
2017-03-06T06:05:17.507Z,4.22
2017-03-06T06:06:32.057Z,4.23
2017-03-06T06:07:17.550Z,4.22
2017-03-06T06:08:32.089Z,4.23
2017-03-06T06:09:17.584Z,4.32
2017-03-06T06:10:17.616Z,4.32
2017-03-06T06:11:17.611Z,4.4
2017-03-06T06:12:17.648Z,4.34
2017-03-06T06:13:32.427Z,4.48
2017-03-06T06:14:17.670Z,4.44
2017-03-06T06:15:17.692Z,4.45
2017-03-06T06:16:17.711Z,4.36
2017-03-06T06:17:17.718Z,4.37
2017-03-06T06:18:32.278Z,4.36
2017-03-06T06:19:17.758Z,4.34
2017-03-06T06:21:17.787Z,4.52
2017-03-06T06:22:17.806Z,4.42
2017-03-06T06:23:17.821Z,4.48
2017-03-06T06:24:32.368Z,4.5
2017-03-06T06:25:17.865Z,4.6
2017-03-06T06:26:17.886Z,4.6
2017-03-06T06:27:17.892Z,4.58
2017-03-06T06:28:17.910Z,4.5
2017-03-06T06:31:17.975Z,4.7
2017-03-06T06:32:17.991Z,4.7
2017-03-06T06:33:18.014Z,4.73
2017-03-06T06:34:32.158Z,4.85
2017-03-06T06:35:18.034Z,4.78
2017-03-06T06:36:18.067Z,4.69
2017-03-06T06:37:18.078Z,4.73
2017-03-06T06:38:18.101Z,4.75
2017-03-06T06:39:18.103Z,4.78
2017-03-06T06:40:17.748Z,4.75
2017-03-06T06:42:18.156Z,4.78
2017-03-06T06:43:18.187Z,4.86
2017-03-06T06:44:18.202Z,4.78
2017-03-06T06:45:18.216Z,4.89
2017-03-06T06:47:18.247Z,4.99
2017-03-06T06:48:18.268Z,4.96
2017-03-06T06:50:18.559Z,5.2
2017-03-06T06:51:18.320Z,5.25
2017-03-06T06:52:18.335Z,5.33
2017-03-06T06:53:18.352Z,5.33
2017-03-06T06:54:18.381Z,5.36
2017-03-06T06:55:32.917Z,5.43
2017-03-06T06:56:18.415Z,5.43
2017-03-06T06:57:18.425Z,5.45
2017-03-06T06:58:18.444Z,5.46
2017-03-06T06:59:18.467Z,5.51
2017-03-06T07:00:18.487Z,5.53
2017-03-06T07:01:18.498Z,5.56
2017-03-06T07:02:18.512Z,5.75
2017-03-06T07:03:18.532Z,5.74
2017-03-06T07:04:18.554Z,5.82
2017-03-06T07:05:18.569Z,5.75
2017-03-06T07:06:18.585Z,5.82
2017-03-06T07:07:18.608Z,5.86
2017-03-06T07:08:18.624Z,5.91
2017-03-06T07:09:18.642Z,6.01
2017-03-06T07:10:33.188Z,6.01
2017-03-06T07:11:18.704Z,6.08
2017-03-06T07:12:18.704Z,6.15
2017-03-06T07:13:33.243Z,6.27
2017-03-06T07:14:18.745Z,6.3
2017-03-06T07:15:18.772Z,6.33
2017-03-06T07:16:18.769Z,6.38
2017-03-06T07:17:18.795Z,6.41
2017-03-06T07:18:18.833Z,6.41
2017-03-06T07:19:18.826Z,6.51
2017-03-06T07:20:18.859Z,6.64
2017-03-06T07:21:33.396Z,6.69
2017-03-06T07:22:18.888Z,6.62
2017-03-06T07:23:18.901Z,6.58
2017-03-06T07:24:18.920Z,6.74
2017-03-06T07:25:18.957Z,6.69
2017-03-06T07:26:33.486Z,6.7
2017-03-06T07:27:18.988Z,6.73
2017-03-06T07:28:19.002Z,6.71
2017-03-06T07:29:19.034Z,6.74
2017-03-06T07:30:19.048Z,6.73
2017-03-06T07:31:19.052Z,6.74
2017-03-06T07:32:18.681Z,6.87
2017-03-06T07:33:19.101Z,6.8
2017-03-06T07:34:19.109Z,6.84
2017-03-06T07:35:19.127Z,6.8
2017-03-06T07:36:19.145Z,6.88
2017-03-06T07:37:33.693Z,6.81
2017-03-06T07:38:19.184Z,6.81
2017-03-06T07:39:19.203Z,6.97
2017-03-06T07:40:19.221Z,6.94
2017-03-06T07:41:19.251Z,6.94
2017-03-06T07:42:19.269Z,6.98
2017-03-06T07:43:33.805Z,7.05
2017-03-06T07:44:19.297Z,7.02
2017-03-06T07:45:19.315Z,6.98
2017-03-06T07:46:19.355Z,6.98
2017-03-06T07:47:19.353Z,7.05
2017-03-06T07:48:19.383Z,6.97
2017-03-06T07:49:19.395Z,7.12
2017-03-06T07:50:19.410Z,7.15
2017-03-06T07:51:19.459Z,7.28
2017-03-06T07:52:19.449Z,7.24
2017-03-06T07:54:19.489Z,7.24
2017-03-06T07:55:19.511Z,7.39
2017-03-06T07:56:19.524Z,7.35
2017-03-06T07:57:19.544Z,7.39
2017-03-06T07:58:19.578Z,7.49
2017-03-06T08:00:19.635Z,7.49
2017-03-06T08:01:19.621Z,7.5
2017-03-06T08:02:19.639Z,7.61
2017-03-06T08:03:34.360Z,7.67
2017-03-06T08:04:19.678Z,7.53
2017-03-06T08:05:19.312Z,7.68
2017-03-06T08:06:19.336Z,7.83
2017-03-06T08:07:19.352Z,7.83
2017-03-06T08:08:19.387Z,7.8
2017-03-06T08:09:34.305Z,7.79
2017-03-06T08:10:19.821Z,7.67
2017-03-06T08:11:34.348Z,7.74
2017-03-06T08:12:19.830Z,7.82
2017-03-06T08:13:19.854Z,8.01
2017-03-06T08:14:34.404Z,7.89
2017-03-06T08:15:19.505Z,7.86
2017-03-06T08:16:19.917Z,7.82
2017-03-06T08:17:34.074Z,7.9
2017-03-06T08:18:19.952Z,8.04
2017-03-06T08:19:19.972Z,8.07
2017-03-06T08:21:19.640Z,8.34
2017-03-06T08:22:19.648Z,8.43
2017-03-06T08:23:20.053Z,8.4
2017-03-06T08:24:34.602Z,8.43
2017-03-06T08:25:20.102Z,8.48
2017-03-06T08:26:20.115Z,8.5
2017-03-06T08:27:20.135Z,8.65
2017-03-06T08:28:20.173Z,8.79
2017-03-06T08:29:34.702Z,8.98
2017-03-06T08:30:20.194Z,9.05
2017-03-06T08:32:20.256Z,9.01
2017-03-06T08:33:20.260Z,9.17
2017-03-06T08:35:19.908Z,9.26
2017-03-06T08:36:20.046Z,9.32
2017-03-06T08:37:20.333Z,9.48
2017-03-06T08:38:20.358Z,9.42
2017-03-06T08:39:20.378Z,9.6
2017-03-06T08:41:20.449Z,9.71
2017-03-06T08:42:20.544Z,9.64
2017-03-06T08:43:20.462Z,9.71
2017-03-06T08:44:20.484Z,9.87
2017-03-06T08:45:20.502Z,9.96
2017-03-06T08:46:20.527Z,9.97
2017-03-06T08:47:20.552Z,10.05
2017-03-06T08:49:20.595Z,10.18
2017-03-06T08:50:20.617Z,10.14
2017-03-06T08:52:20.655Z,10.15
2017-03-06T08:53:20.685Z,10.15
2017-03-06T08:54:20.709Z,10.15
2017-03-06T08:55:20.720Z,10.17
2017-03-06T08:56:35.274Z,9.93
2017-03-06T08:57:20.771Z,10.14
2017-03-06T08:58:20.784Z,10.2
2017-03-06T08:59:20.805Z,10.3
2017-03-06T09:00:20.841Z,10.52
2017-03-06T09:01:35.378Z,10.78
2017-03-06T09:02:35.399Z,10.88
2017-03-06T09:03:20.895Z,10.92
2017-03-06T09:04:20.947Z,11.06
2017-03-06T09:05:20.943Z,11.1
2017-03-06T09:06:20.569Z,11.18
2017-03-06T09:07:20.977Z,11.1
2017-03-06T09:08:21.026Z,11.06
2017-03-06T09:09:21.030Z,11.17
2017-03-06T09:10:21.063Z,11.42
2017-03-06T09:11:21.108Z,11.75
2017-03-06T09:12:35.625Z,12.01
2017-03-06T09:13:21.116Z,12.14
2017-03-06T09:14:21.147Z,12.34
2017-03-06T09:15:21.179Z,12.47
2017-03-06T09:16:21.531Z,12.35
2017-03-06T09:17:21.223Z,12.35
2017-03-06T09:18:21.228Z,12.23
2017-03-06T09:19:21.253Z,12.28
2017-03-06T09:20:20.898Z,12.37
2017-03-06T09:21:20.930Z,12.46
2017-03-06T09:22:20.944Z,12.67
2017-03-06T09:23:21.606Z,12.7
2017-03-06T09:24:20.991Z,12.83
2017-03-06T09:25:21.011Z,12.82
2017-03-06T09:26:21.421Z,12.9
2017-03-06T09:27:21.444Z,12.86
2017-03-06T09:29:21.095Z,12.77
2017-03-06T09:30:36.040Z,12.87
2017-03-06T09:31:21.649Z,12.87
2017-03-06T09:33:21.205Z,12.56
2017-03-06T09:34:21.598Z,12.54
2017-03-06T09:36:21.656Z,12.79
2017-03-06T09:37:21.675Z,12.83
2017-03-06T09:38:21.703Z,12.9
2017-03-06T09:39:21.329Z,12.89
2017-03-06T09:40:21.352Z,12.9
2017-03-06T09:41:21.375Z,12.92
2017-03-06T09:42:21.785Z,12.83
2017-03-06T09:43:21.809Z,12.86
2017-03-06T09:44:36.363Z,12.67
2017-03-06T09:45:21.858Z,12.7
2017-03-06T09:46:21.501Z,12.86
2017-03-06T09:47:21.516Z,12.9
2017-03-06T09:48:21.923Z,12.78
2017-03-06T09:49:21.959Z,12.7
2017-03-06T09:50:21.968Z,12.65
2017-03-06T09:51:21.608Z,12.68
2017-03-06T09:52:22.039Z,12.65
2017-03-06T09:53:22.040Z,12.65
2017-03-06T09:54:22.083Z,12.54
2017-03-06T09:55:21.703Z,12.56
2017-03-06T09:56:22.111Z,12.59
2017-03-06T09:57:22.132Z,12.57
2017-03-06T09:58:22.156Z,12.53
2017-03-06T09:59:36.710Z,12.35
2017-03-06T10:00:22.201Z,12.34
2017-03-06T10:01:22.237Z,12.37
2017-03-06T10:02:22.249Z,12.34
2017-03-06T10:03:22.472Z,12.29
2017-03-06T10:04:21.910Z,12.35
2017-03-06T10:05:22.330Z,12.34
2017-03-06T10:06:22.361Z,12.35
2017-03-06T10:07:22.360Z,12.41
2017-03-06T10:08:22.006Z,12.24
2017-03-06T10:09:22.417Z,12.16
2017-03-06T10:10:22.460Z,12.19
2017-03-06T10:11:22.458Z,12.16
2017-03-06T10:12:22.481Z,12.29
2017-03-06T10:13:22.500Z,12.29
2017-03-06T10:14:22.545Z,12.37
2017-03-06T10:15:22.552Z,12.34
2017-03-06T10:16:22.567Z,12.34
2017-03-06T10:17:22.212Z,12.35
2017-03-06T10:18:37.146Z,12.39
2017-03-06T10:19:22.633Z,12.38
2017-03-06T10:20:22.667Z,12.31
2017-03-06T10:21:22.678Z,12.38
2017-03-06T10:22:22.315Z,12.41
2017-03-06T10:23:22.345Z,12.13
2017-03-06T10:24:22.750Z,12.19
2017-03-06T10:25:22.774Z,12.07
2017-03-06T10:26:37.331Z,11.98
2017-03-06T10:28:22.865Z,12.04
2017-03-06T10:29:22.864Z,12.01
2017-03-06T10:30:22.497Z,12.1
2017-03-06T10:31:37.434Z,12.09
2017-03-06T10:32:22.927Z,12.28
2017-03-06T10:33:22.949Z,12.23
2017-03-06T10:34:22.978Z,12.19
2017-03-06T10:35:23.010Z,12.23
2017-03-06T10:36:23.020Z,12.21
2017-03-06T10:37:23.041Z,12.23
2017-03-06T10:38:23.059Z,12.29
2017-03-06T10:39:23.084Z,12.41
2017-03-06T10:40:23.121Z,12.29
2017-03-06T10:41:23.136Z,12.17
2017-03-06T10:43:37.712Z,12.2
2017-03-06T10:45:23.219Z,12.14
2017-03-06T10:46:23.250Z,12.09
2017-03-06T10:47:37.794Z,11.98
2017-03-06T10:48:23.286Z,11.85
2017-03-06T10:49:23.308Z,11.95
2017-03-06T10:50:23.345Z,12.01
2017-03-06T10:51:23.355Z,12.04
2017-03-06T10:52:23.375Z,12.07
2017-03-06T10:53:23.403Z,12.16
2017-03-06T10:55:37.986Z,12.27
2017-03-06T10:56:23.464Z,12.39
2017-03-06T10:57:23.485Z,12.28
2017-03-06T10:58:23.510Z,12.07
2017-03-06T10:59:23.530Z,12.1
2017-03-06T11:00:23.553Z,12.07
2017-03-06T11:01:23.576Z,11.99
2017-03-06T11:02:23.603Z,11.86
2017-03-06T11:03:38.156Z,11.72
2017-03-06T11:04:23.655Z,11.7
2017-03-06T11:05:23.665Z,11.8
2017-03-06T11:06:23.691Z,11.85
2017-03-06T11:07:23.723Z,11.83
2017-03-06T11:08:23.752Z,11.98
2017-03-06T11:09:38.286Z,11.78
2017-03-06T11:10:23.778Z,11.96
2017-03-06T11:11:23.800Z,12.04
2017-03-06T11:12:23.445Z,12.1
2017-03-06T11:13:23.871Z,12.35
2017-03-06T11:14:23.873Z,12.47
2017-03-06T11:15:23.897Z,12.46
2017-03-06T11:16:23.922Z,12.67
2017-03-06T11:17:23.939Z,12.67
2017-03-06T11:18:38.494Z,12.71
2017-03-06T11:19:38.511Z,12.86
2017-03-06T11:21:24.025Z,13.08
2017-03-06T11:22:24.045Z,12.89
2017-03-06T11:23:24.073Z,12.86
2017-03-06T11:24:38.623Z,12.79
2017-03-06T11:25:24.114Z,12.62
2017-03-06T11:26:23.749Z,12.74
2017-03-06T11:27:23.774Z,12.52
2017-03-06T11:28:23.807Z,12.54
2017-03-06T11:30:24.226Z,12.42
2017-03-06T11:31:24.263Z,12.57
2017-03-06T11:32:24.277Z,12.72
2017-03-06T11:33:24.296Z,12.79
2017-03-06T11:34:38.851Z,12.9
2017-03-06T11:35:24.366Z,12.96
2017-03-06T11:36:24.390Z,12.89
2017-03-06T11:37:24.386Z,12.89
2017-03-06T11:38:24.021Z,12.68
2017-03-06T11:39:38.963Z,12.47
2017-03-06T11:40:24.451Z,12.41
2017-03-06T11:41:24.479Z,12.27
2017-03-06T11:42:24.125Z,12.38
2017-03-06T11:43:24.544Z,12.46
2017-03-06T11:44:24.557Z,12.41
2017-03-06T11:45:24.585Z,12.45
2017-03-06T11:48:24.642Z,12.38
2017-03-06T11:49:24.275Z,12.37
2017-03-06T11:51:24.702Z,12.17
2017-03-06T11:52:24.735Z,11.94
2017-03-06T11:53:24.756Z,11.91
2017-03-06T11:54:24.770Z,11.94
2017-03-06T11:55:39.323Z,11.98
2017-03-06T11:56:24.450Z,12.01
2017-03-06T11:57:24.851Z,12.2
2017-03-06T11:58:24.870Z,12.23
2017-03-06T11:59:24.893Z,12.28
2017-03-06T12:00:24.915Z,12.27
2017-03-06T12:01:24.928Z,12.17
2017-03-06T12:02:24.966Z,12.14
2017-03-06T12:03:24.974Z,12.13
2017-03-06T12:04:24.997Z,12.16
2017-03-06T12:05:25.022Z,12.01
2017-03-06T12:06:39.571Z,12.19
2017-03-06T12:07:25.076Z,12.09
2017-03-06T12:08:25.120Z,12.16
2017-03-06T12:09:25.121Z,12.19
2017-03-06T12:10:25.152Z,12.17
2017-03-06T12:11:25.164Z,12.17
2017-03-06T12:12:25.185Z,12.09
2017-03-06T12:13:25.197Z,12.07
2017-03-06T12:14:24.839Z,11.95
2017-03-06T12:15:25.269Z,11.91
2017-03-06T12:16:25.284Z,11.83
2017-03-06T12:17:25.291Z,11.76
2017-03-06T12:18:24.955Z,11.7
2017-03-06T12:19:25.346Z,11.73
2017-03-06T12:20:25.376Z,11.79
2017-03-06T12:21:24.993Z,11.69
2017-03-06T12:23:25.442Z,11.65
2017-03-06T12:24:25.456Z,11.65
2017-03-06T12:25:25.466Z,11.57
2017-03-06T12:26:25.503Z,11.44
2017-03-06T12:27:40.059Z,11.17
2017-03-06T12:28:25.537Z,11.11
2017-03-06T12:30:25.578Z,11.06
2017-03-06T12:31:25.217Z,11.09
2017-03-06T12:33:25.268Z,11.17
2017-03-06T12:34:25.665Z,11.32
2017-03-06T12:35:25.697Z,11.28
2017-03-06T12:36:25.738Z,11.21
2017-03-06T12:37:25.732Z,11.24
2017-03-06T12:38:39.908Z,11.19
2017-03-06T12:39:25.779Z,11.42
2017-03-06T12:40:25.821Z,11.52
2017-03-06T12:41:25.828Z,11.28
2017-03-06T12:42:25.849Z,11.22
2017-03-06T12:44:25.886Z,11.19
2017-03-06T12:45:25.917Z,11.15
2017-03-06T12:46:25.932Z,11.09
2017-03-06T12:47:25.953Z,10.92
2017-03-06T12:48:25.980Z,11.09
2017-03-06T12:49:26.003Z,11.03
2017-03-06T12:51:26.068Z,11.07
2017-03-06T12:52:26.084Z,11
2017-03-06T12:53:26.088Z,10.99
2017-03-06T12:54:40.658Z,10.99
2017-03-06T12:55:25.819Z,10.86
2017-03-06T12:56:26.153Z,10.88
2017-03-06T12:57:26.175Z,10.94
2017-03-06T12:58:25.807Z,11.06
2017-03-06T12:59:25.866Z,11.09
2017-03-06T13:00:26.243Z,11.28
2017-03-06T13:01:26.267Z,11.27
2017-03-06T13:02:25.897Z,11.32
2017-03-06T13:03:26.342Z,11.37
2017-03-06T13:04:40.888Z,11.49
2017-03-06T13:05:26.352Z,11.61
2017-03-06T13:06:26.018Z,11.47
2017-03-06T13:07:26.406Z,11.33
2017-03-06T13:08:26.426Z,11.35
2017-03-06T13:09:40.969Z,11.35
2017-03-06T13:10:41.024Z,11.35
2017-03-06T13:11:41.017Z,11.27
2017-03-06T13:12:26.512Z,11.36
2017-03-06T13:13:26.591Z,11.29
2017-03-06T13:14:26.580Z,11.35
2017-03-06T13:15:41.104Z,11.46
2017-03-06T13:16:26.599Z,11.42
2017-03-06T13:17:26.255Z,11.42
2017-03-06T13:18:41.206Z,11.33
2017-03-06T13:19:26.295Z,11.27
2017-03-06T13:20:26.696Z,11.1
2017-03-06T13:21:26.709Z,11.17
2017-03-06T13:23:26.753Z,11.37
2017-03-06T13:24:26.796Z,11.25
2017-03-06T13:25:26.896Z,11.29
2017-03-06T13:26:26.826Z,11.39
2017-03-06T13:27:26.872Z,11.35
2017-03-06T13:28:26.863Z,11.27
2017-03-06T13:29:26.501Z,11.24
2017-03-06T13:30:26.911Z,11.28
2017-03-06T13:31:26.553Z,11.37
2017-03-06T13:32:26.959Z,11.43
2017-03-06T13:33:41.516Z,11.57
2017-03-06T13:34:26.997Z,11.57
2017-03-06T13:35:27.018Z,11.39
2017-03-06T13:36:27.045Z,11.46
2017-03-06T13:37:27.076Z,11.43
2017-03-06T13:39:26.724Z,11.57
2017-03-06T13:40:27.133Z,11.61
2017-03-06T13:41:41.690Z,11.62
2017-03-06T13:42:27.180Z,11.65
2017-03-06T13:43:26.887Z,11.55
2017-03-06T13:44:27.239Z,11.52
2017-03-06T13:45:41.773Z,11.62
2017-03-06T13:46:27.264Z,11.61
2017-03-06T13:47:26.900Z,11.76
2017-03-06T13:48:27.311Z,11.78
2017-03-06T13:49:27.337Z,11.73
2017-03-06T13:50:27.386Z,11.72
2017-03-06T13:51:27.380Z,11.69
2017-03-06T13:52:27.400Z,11.65
2017-03-06T13:53:27.034Z,11.65
2017-03-06T13:54:27.449Z,11.69
2017-03-06T13:55:27.464Z,11.58
2017-03-06T13:57:42.042Z,11.69
2017-03-06T13:58:27.547Z,11.54
2017-03-06T13:59:27.569Z,11.58
2017-03-06T14:00:27.578Z,11.57
2017-03-06T14:01:27.600Z,11.39
2017-03-06T14:02:27.620Z,11.33
2017-03-06T14:03:42.174Z,11.33
2017-03-06T14:04:27.673Z,11.15
2017-03-06T14:05:27.691Z,11.22
2017-03-06T14:06:27.712Z,11.25
2017-03-06T14:07:42.276Z,11.25